createdAt,value
2022-12-06T00:04:32.855Z,101978.91
2022-12-06T00:09:36.944Z,101990.03
2022-12-06T00:14:41.051Z,101988.22
2022-12-06T00:19:46.544Z,101991.72
2022-12-06T00:24:50.657Z,101988.12
2022-12-06T00:29:54.766Z,101979.78
2022-12-06T00:35:00.234Z,101977.31
2022-12-06T00:40:04.555Z,101970.56
2022-12-06T00:45:10.093Z,101970.66
2022-12-06T00:50:15.689Z,101975.03
2022-12-06T00:55:19.746Z,101980.91
2022-12-06T01:00:23.863Z,101974.91
2022-12-06T01:05:29.791Z,101976.44
2022-12-06T01:10:33.823Z,101990.03
2022-12-06T01:15:37.989Z,101983.75
2022-12-06T01:20:43.176Z,101982.34
2022-12-06T01:25:53.544Z,101986.16
2022-12-06T01:30:57.231Z,101985.28
2022-12-06T01:36:02.569Z,101988.72
2022-12-06T01:41:06.356Z,101994.50
2022-12-06T01:46:24.290Z,101991.44
2022-12-06T01:51:30.509Z,101987.97
2022-12-06T01:56:34.409Z,101987.97
2022-12-06T02:01:40.321Z,101980.44
2022-12-06T02:06:46.892Z,101980.28
2022-12-06T02:11:50.575Z,101973.34
2022-12-06T02:17:14.965Z,101976.84
2022-12-06T02:22:27.339Z,101975.31
2022-12-06T02:27:51.874Z,101970.28
2022-12-06T02:33:04.470Z,101961.94
2022-12-06T02:38:14.897Z,101969.78
2022-12-06T02:43:23.614Z,101963.88
2022-12-06T02:48:28.867Z,101968.09
2022-12-06T02:53:35.404Z,101968.09
2022-12-06T02:58:39.500Z,101957.84
2022-12-06T03:04:05.346Z,101968.09
2022-12-06T03:09:19.517Z,101961.44
2022-12-06T03:14:25.268Z,101958.75
2022-12-06T03:19:32.066Z,101963.22
2022-12-06T03:24:39.700Z,101959.03
2022-12-06T03:29:48.905Z,101961.69
2022-12-06T03:34:56.851Z,101969.53
2022-12-06T03:40:08.136Z,101967.06
2022-12-06T03:45:13.363Z,101964.50
2022-12-06T03:50:23.164Z,101967.06
2022-12-06T03:55:26.826Z,101960.03
2022-12-06T04:00:30.629Z,101959.28
2022-12-06T04:05:35.626Z,101958.25
2022-12-06T04:10:39.250Z,101964.00
2022-12-06T04:15:42.992Z,101958.75
2022-12-06T04:21:14.098Z,101956.97
2022-12-06T04:26:20.547Z,101960.28
2022-12-06T04:31:43.061Z,101962.59
2022-12-06T04:37:05.787Z,101966.81
2022-12-06T04:42:27.578Z,101964.66
2022-12-06T04:47:31.271Z,101963.00
2022-12-06T04:52:36.563Z,101961.31
2022-12-06T04:57:40.307Z,101957.72
2022-12-06T05:02:44.065Z,101949.00
2022-12-06T05:07:49.159Z,101950.66
2022-12-06T05:12:52.842Z,101942.72
2022-12-06T05:17:56.598Z,101951.81
2022-12-06T05:23:01.682Z,101941.31
2022-12-06T05:28:05.960Z,101937.59
2022-12-06T05:33:09.678Z,101950.28
2022-12-06T05:38:14.764Z,101948.50
2022-12-06T05:43:18.708Z,101939.00
2022-12-06T05:48:22.852Z,101939.13
2022-12-06T05:53:27.992Z,101941.81
2022-12-06T05:58:31.693Z,101946.94
2022-12-06T06:03:35.905Z,101940.78
2022-12-06T06:08:41.230Z,101944.91
2022-12-06T06:13:44.908Z,101948.22
2022-12-06T06:18:48.702Z,101956.53
2022-12-06T06:23:53.831Z,101951.25
2022-12-06T06:28:57.596Z,101948.59
2022-12-06T06:34:01.293Z,101951.78
2022-12-06T06:39:06.403Z,101952.53
2022-12-06T06:44:10.154Z,101956.63
2022-12-06T06:49:14.024Z,101948.94
2022-12-06T06:54:19.085Z,101948.69
2022-12-06T06:59:23.149Z,101939.84
2022-12-06T07:04:26.868Z,101944.69
2022-12-06T07:09:31.940Z,101938.69
2022-12-06T07:14:36.087Z,101938.44
2022-12-06T07:19:39.807Z,101944.31
2022-12-06T07:24:50.787Z,101930.59
2022-12-06T07:29:56.012Z,101938.03
2022-12-06T07:34:59.705Z,101939.69
2022-12-06T07:40:05.331Z,101944.69
2022-12-06T07:45:10.167Z,101948.28
2022-12-06T07:50:18.131Z,101952.66
2022-12-06T07:55:23.838Z,101958.78
2022-12-06T08:00:27.714Z,101963.16
2022-12-06T08:05:31.430Z,101967.62
2022-12-06T08:10:37.551Z,101972.75
2022-12-06T08:15:41.470Z,101968.66
2022-12-06T08:20:45.199Z,101963.53
2022-12-06T08:25:57.828Z,101964.94
2022-12-06T08:31:07.225Z,101961.91
2022-12-06T08:36:13.525Z,101968.69
2022-12-06T08:41:36.760Z,101959.81
2022-12-06T08:46:41.470Z,101966.22
2022-12-06T08:51:46.859Z,101973.72
2022-12-06T08:56:52.297Z,101978.19
2022-12-06T09:01:56.083Z,101973.59
2022-12-06T09:06:59.812Z,101974.75
2022-12-06T09:12:05.263Z,101982.69
2022-12-06T09:17:08.931Z,101985.78
2022-12-06T09:22:12.622Z,101988.12
2022-12-06T09:27:17.731Z,101993.00
2022-12-06T09:32:21.449Z,101990.22
2022-12-06T09:37:25.297Z,101986.53
2022-12-06T09:42:52.232Z,101987.94
2022-12-06T09:48:27.799Z,101987.69
2022-12-06T09:53:44.183Z,101987.44
2022-12-06T09:59:01.584Z,101983.88
2022-12-06T10:04:19.346Z,101986.31
2022-12-06T10:09:36.430Z,101984.53
2022-12-06T10:15:13.159Z,101988.75
2022-12-06T10:20:24.929Z,101974.38
2022-12-06T10:25:35.082Z,101978.59
2022-12-06T10:30:46.574Z,101975.91
2022-12-06T10:35:56.953Z,101968.06
2022-12-06T10:41:08.188Z,101968.94
2022-12-06T10:46:38.045Z,101959.41
2022-12-06T10:51:45.997Z,101950.12
2022-12-06T10:56:53.530Z,101958.97
2022-12-06T11:02:02.765Z,101950.81
2022-12-06T11:07:13.371Z,101949.31
2022-12-06T11:12:29.565Z,101947.25
2022-12-06T11:17:40.598Z,101943.53
2022-12-06T11:22:51.878Z,101947.66
2022-12-06T11:28:01.844Z,101939.53
2022-12-06T11:33:07.050Z,101930.97
2022-12-06T11:38:10.742Z,101929.88
2022-12-06T11:43:19.119Z,101934.56
2022-12-06T11:48:25.260Z,101932.00
2022-12-06T11:53:33.463Z,101906.72
2022-12-06T11:58:39.313Z,101900.53
2022-12-06T12:03:46.102Z,101902.34
2022-12-06T12:08:59.690Z,101893.50
2022-12-06T12:14:06.449Z,101887.94
2022-12-06T12:19:28.410Z,101875.13
2022-12-06T12:30:28.465Z,101867.06
2022-12-06T12:35:35.451Z,101857.47
2022-12-06T12:40:42.321Z,101845.72
2022-12-06T12:46:06.655Z,101855.44
2022-12-06T12:51:25.314Z,101862.38
2022-12-06T12:56:31.888Z,101857.72
2022-12-06T13:01:43.185Z,101854.06
2022-12-06T13:06:52.036Z,101848.56
2022-12-06T13:11:59.353Z,101852.38
2022-12-06T13:17:08.634Z,101850.31
2022-12-06T13:22:20.068Z,101840.47
2022-12-06T13:27:24.820Z,101842.28
2022-12-06T13:32:33.562Z,101842.22
2022-12-06T13:37:47.055Z,101829.53
2022-12-06T13:42:50.777Z,101832.00
2022-12-06T13:47:54.523Z,101827.44
2022-12-06T13:53:03.247Z,101826.19
2022-12-06T13:58:40.567Z,101822.31
2022-12-06T14:03:56.215Z,101823.03
2022-12-06T14:09:01.945Z,101818.81
2022-12-06T14:14:09.226Z,101805.94
2022-12-06T14:19:21.509Z,101822.75
2022-12-06T14:24:33.317Z,101819.28
2022-12-06T14:29:37.293Z,101809.56
2022-12-06T14:34:41.010Z,101813.69
2022-12-06T14:39:52.276Z,101809.91
2022-12-06T14:45:02.001Z,101801.16
2022-12-06T14:50:25.901Z,101791.34
2022-12-06T14:55:32.824Z,101788.34
2022-12-06T15:00:39.533Z,101783.16
2022-12-06T15:05:44.749Z,101788.34
2022-12-06T15:11:00.627Z,101777.81
2022-12-06T15:16:15.733Z,101773.25
2022-12-06T15:21:19.548Z,101779.84
2022-12-06T15:26:25.762Z,101779.84
2022-12-06T15:31:31.881Z,101787.34
2022-12-06T15:36:36.486Z,101789.72
2022-12-06T15:41:42.184Z,101791.06
2022-12-06T15:46:46.604Z,101792.50
2022-12-06T15:51:50.724Z,101787.13
2022-12-06T15:56:55.718Z,101786.59
2022-12-06T16:01:59.521Z,101789.84
2022-12-06T16:07:03.181Z,101785.22
2022-12-06T16:12:08.756Z,101788.12
2022-12-06T16:17:12.471Z,101789.81
2022-12-06T16:22:16.226Z,101792.03
2022-12-06T16:27:21.256Z,101777.97
2022-12-06T16:32:25.002Z,101777.50
2022-12-06T16:37:28.681Z,101783.31
2022-12-06T16:42:33.761Z,101789.66
2022-12-06T16:47:37.863Z,101784.50
2022-12-06T16:52:41.584Z,101781.06
2022-12-06T16:57:46.768Z,101773.13
2022-12-06T17:02:50.909Z,101773.53
2022-12-06T17:07:54.767Z,101772.87
2022-12-06T17:12:59.884Z,101769.72
2022-12-06T17:18:03.636Z,101774.78
2022-12-06T17:23:07.321Z,101765.72
2022-12-06T17:28:12.454Z,101759.47
2022-12-06T17:33:16.130Z,101762.44
2022-12-06T17:38:20.144Z,101766.16
2022-12-06T17:43:25.257Z,101757.22
2022-12-06T17:48:33.530Z,101761.50
2022-12-06T17:53:39.923Z,101764.38
2022-12-06T17:58:44.946Z,101764.53
2022-12-06T18:03:51.527Z,101760.62
2022-12-06T18:08:55.314Z,101760.97
2022-12-06T18:14:00.707Z,101758.72
2022-12-06T18:19:08.686Z,101757.69
2022-12-06T18:24:21.458Z,101761.81
2022-12-06T18:29:27.294Z,101761.78
2022-12-06T18:34:31.385Z,101758.00
2022-12-06T18:39:35.082Z,101756.63
2022-12-06T18:44:40.228Z,101751.00
2022-12-06T18:49:43.930Z,101751.19
2022-12-06T18:54:47.644Z,101750.59
2022-12-06T18:59:52.715Z,101755.37
2022-12-06T19:04:56.459Z,101749.88
2022-12-06T19:10:00.585Z,101755.22
2022-12-06T19:15:07.159Z,101752.22
2022-12-06T19:20:11.148Z,101754.53
2022-12-06T19:25:14.893Z,101747.41
2022-12-06T19:30:20.329Z,101749.38
2022-12-06T19:35:24.074Z,101749.38
2022-12-06T19:40:28.208Z,101753.34
2022-12-06T19:45:33.280Z,101758.09
2022-12-06T19:50:37.100Z,101762.03
2022-12-06T19:55:46.560Z,101755.47
2022-12-06T20:00:51.908Z,101754.38
2022-12-06T20:06:02.285Z,101751.44
2022-12-06T20:11:28.847Z,101767.34
2022-12-06T20:16:34.223Z,101749.81
2022-12-06T20:21:38.097Z,101748.91
2022-12-06T20:26:42.158Z,101759.97
2022-12-06T20:31:48.432Z,101750.31
2022-12-06T20:36:52.168Z,101756.75
2022-12-06T20:41:56.170Z,101749.34
2022-12-06T20:47:01.410Z,101740.84
2022-12-06T20:52:06.852Z,101745.75
2022-12-06T20:57:10.572Z,101744.97
2022-12-06T21:02:15.645Z,101746.13
2022-12-06T21:07:19.481Z,101737.63
2022-12-06T21:12:23.253Z,101757.72
2022-12-06T21:17:28.356Z,101769.53
2022-12-06T21:22:32.039Z,101752.59
2022-12-06T21:27:35.867Z,101749.66
2022-12-06T21:32:40.993Z,101743.28
2022-12-06T21:37:44.732Z,101740.28
2022-12-06T21:42:48.533Z,101748.47
2022-12-06T21:47:53.652Z,101753.97
2022-12-06T21:52:58.015Z,101749.09
2022-12-06T21:58:01.739Z,101749.25
2022-12-06T22:03:06.878Z,101745.50
2022-12-06T22:08:10.740Z,101758.44
2022-12-06T22:13:14.502Z,101757.44
2022-12-06T22:18:19.667Z,101762.97
2022-12-06T22:23:23.389Z,101764.16
2022-12-06T22:28:27.566Z,101767.00
2022-12-06T22:33:33.383Z,101763.97
2022-12-06T22:38:37.466Z,101778.31
2022-12-06T22:43:41.178Z,101775.87
2022-12-06T22:48:46.704Z,101786.50
2022-12-06T22:53:54.247Z,101787.66
2022-12-06T22:58:59.953Z,101773.16
2022-12-06T23:04:07.954Z,101767.66
2022-12-06T23:09:15.465Z,101763.06
2022-12-06T23:14:19.174Z,101752.31
2022-12-06T23:19:24.305Z,101749.50
2022-12-06T23:24:28.026Z,101750.66
2022-12-06T23:29:31.752Z,101754.28
2022-12-06T23:34:36.845Z,101758.87
2022-12-06T23:39:40.563Z,101751.47
2022-12-06T23:44:44.334Z,101754.28
2022-12-06T23:49:49.420Z,101764.12
2022-12-06T23:54:53.074Z,101763.50
2022-12-06T23:59:56.738Z,101756.59
